createdAt,value
2018-11-26T00:00:58.871Z,4.6
2018-11-26T00:02:08.842Z,4.5
2018-11-26T00:03:18.807Z,4.5
2018-11-26T00:04:28.739Z,4.58
2018-11-26T00:05:38.206Z,4.6
2018-11-26T00:06:47.925Z,4.63
2018-11-26T00:07:57.388Z,4.67
2018-11-26T00:09:07.100Z,4.63
2018-11-26T00:10:16.554Z,4.76
2018-11-26T00:11:26.510Z,4.63
2018-11-26T00:12:36.460Z,4.64
2018-11-26T00:13:45.929Z,4.64
2018-11-26T00:14:55.879Z,4.56
2018-11-26T00:16:05.591Z,4.6
2018-11-26T00:17:15.291Z,4.5
2018-11-26T00:18:25.243Z,4.52
2018-11-26T00:19:34.946Z,4.58
2018-11-26T00:20:44.403Z,4.46
2018-11-26T00:21:53.844Z,4.5
2018-11-26T00:23:03.541Z,4.39
2018-11-26T00:24:13.493Z,4.36
2018-11-26T00:25:23.192Z,4.38
2018-11-26T00:26:32.635Z,4.34
2018-11-26T00:27:42.340Z,4.28
2018-11-26T00:28:51.804Z,4.27
2018-11-26T00:30:01.763Z,4.14
2018-11-26T00:31:11.733Z,4.16
2018-11-26T00:32:21.197Z,4.1
2018-11-26T00:33:30.657Z,4.02
2018-11-26T00:34:40.594Z,4.02
2018-11-26T00:35:50.539Z,3.88
2018-11-26T00:37:00.516Z,3.96
2018-11-26T00:38:10.232Z,3.78
2018-11-26T00:39:19.688Z,3.85
2018-11-26T00:40:29.649Z,3.89
2018-11-26T00:41:39.346Z,3.84
2018-11-26T00:42:49.057Z,3.84
2018-11-26T00:43:58.756Z,3.73
2018-11-26T00:45:08.713Z,3.73
2018-11-26T00:46:18.406Z,3.74
2018-11-26T00:47:28.470Z,3.71
2018-11-26T00:48:38.160Z,3.73
2018-11-26T00:49:47.620Z,3.7
2018-11-26T00:50:57.098Z,3.68
2018-11-26T00:52:06.333Z,3.64
2018-11-26T00:53:16.024Z,3.73
2018-11-26T00:54:25.972Z,3.7
2018-11-26T00:55:35.676Z,3.67
2018-11-26T00:56:45.387Z,3.7
2018-11-26T00:57:54.866Z,3.73
2018-11-26T00:59:04.616Z,3.7
2018-11-26T01:00:14.082Z,3.68
2018-11-26T01:01:23.790Z,3.66
2018-11-26T01:02:33.237Z,3.56
2018-11-26T01:03:43.174Z,3.56
2018-11-26T01:04:52.870Z,3.59
2018-11-26T01:06:02.819Z,3.55
2018-11-26T01:07:12.758Z,3.56
2018-11-26T01:08:21.711Z,3.53
2018-11-26T01:09:31.671Z,3.45
2018-11-26T01:10:40.854Z,3.52
2018-11-26T01:11:50.564Z,3.49
2018-11-26T01:13:00.507Z,3.49
2018-11-26T01:14:10.193Z,3.46
2018-11-26T01:15:20.140Z,3.43
2018-11-26T01:16:29.842Z,3.45
2018-11-26T01:17:39.784Z,3.3
2018-11-26T01:18:49.782Z,3.29
2018-11-26T01:19:59.721Z,3.21
2018-11-26T01:21:09.153Z,3.21
2018-11-26T01:22:18.859Z,3.19
2018-11-26T01:23:28.322Z,3.16
2018-11-26T01:24:37.523Z,3.11
2018-11-26T01:25:47.208Z,3.09
2018-11-26T01:26:57.152Z,3.01
2018-11-26T01:28:07.109Z,2.94
2018-11-26T01:29:17.055Z,2.97
2018-11-26T01:30:26.754Z,2.91
2018-11-26T01:31:36.462Z,2.79
2018-11-26T01:32:46.423Z,2.82
2018-11-26T01:33:56.126Z,2.73
2018-11-26T01:35:06.085Z,2.77
2018-11-26T01:36:15.790Z,2.77
2018-11-26T01:37:25.238Z,2.77
2018-11-26T01:38:34.940Z,2.75
2018-11-26T01:39:44.624Z,2.77
2018-11-26T01:40:54.073Z,2.72
2018-11-26T01:42:03.536Z,2.82
2018-11-26T01:43:13.246Z,2.85
2018-11-26T01:44:22.931Z,2.83
2018-11-26T01:45:32.882Z,2.88
2018-11-26T01:46:42.600Z,2.87
2018-11-26T01:47:52.058Z,2.73
2018-11-26T01:49:01.998Z,2.8
2018-11-26T01:50:11.947Z,2.75
2018-11-26T01:51:21.902Z,2.77
2018-11-26T01:52:31.846Z,2.73
2018-11-26T01:53:41.546Z,2.73
2018-11-26T01:54:51.499Z,2.72
2018-11-26T01:56:00.949Z,2.62
2018-11-26T01:57:10.650Z,2.58
2018-11-26T01:58:20.589Z,2.55
2018-11-26T01:59:30.296Z,2.43
2018-11-26T02:00:40.006Z,2.5
2018-11-26T02:01:49.963Z,2.5
2018-11-26T02:02:59.676Z,2.44
2018-11-26T02:04:09.381Z,2.5
2018-11-26T02:05:19.078Z,2.52
2018-11-26T02:06:28.787Z,2.46
2018-11-26T02:07:38.479Z,2.43
2018-11-26T02:08:48.163Z,2.47
2018-11-26T02:09:57.855Z,2.46
2018-11-26T02:11:07.561Z,2.46
2018-11-26T02:12:17.020Z,2.5
2018-11-26T02:13:26.972Z,2.51
2018-11-26T02:14:36.678Z,2.4
2018-11-26T02:15:46.157Z,2.39
2018-11-26T02:16:56.122Z,2.43
2018-11-26T02:18:05.829Z,2.4
2018-11-26T02:19:15.285Z,2.39
2018-11-26T02:20:25.247Z,2.46
2018-11-26T02:21:34.689Z,2.5
2018-11-26T02:22:44.394Z,2.47
2018-11-26T02:23:54.132Z,2.55
2018-11-26T02:25:03.331Z,2.47
2018-11-26T02:26:13.029Z,2.51
2018-11-26T02:27:22.994Z,2.5
2018-11-26T02:28:32.456Z,2.47
2018-11-26T02:29:42.172Z,2.51
2018-11-26T02:30:51.883Z,2.5
2018-11-26T02:32:01.845Z,2.47
2018-11-26T02:33:11.306Z,2.52
2018-11-26T02:34:21.280Z,2.36
2018-11-26T02:35:30.738Z,2.46
2018-11-26T02:36:40.697Z,2.39
2018-11-26T02:37:49.897Z,2.4
2018-11-26T02:38:59.590Z,2.37
2018-11-26T02:40:09.046Z,2.39
2018-11-26T02:41:18.552Z,2.39
2018-11-26T02:42:28.299Z,2.39
2018-11-26T02:43:38.250Z,2.36
2018-11-26T02:44:47.963Z,2.34
2018-11-26T02:45:57.153Z,2.39
2018-11-26T02:47:06.862Z,2.25
2018-11-26T02:48:16.564Z,2.36
2018-11-26T02:49:26.532Z,2.34
2018-11-26T02:50:35.983Z,2.25
2018-11-26T02:51:45.926Z,2.3
2018-11-26T02:52:55.626Z,2.3
2018-11-26T02:54:05.597Z,2.26
2018-11-26T02:55:15.552Z,2.33
2018-11-26T02:56:25.278Z,2.33
2018-11-26T02:57:34.489Z,2.25
2018-11-26T02:58:44.199Z,2.28
2018-11-26T02:59:53.646Z,2.3
2018-11-26T03:01:03.344Z,2.28
2018-11-26T03:02:12.797Z,2.44
2018-11-26T03:03:22.488Z,2.28
2018-11-26T03:04:31.952Z,2.33
2018-11-26T03:05:41.443Z,2.44
2018-11-26T03:06:51.405Z,2.34
2018-11-26T03:08:01.111Z,2.32
2018-11-26T03:09:10.570Z,2.3
2018-11-26T03:10:19.523Z,2.28
2018-11-26T03:11:29.216Z,2.37
2018-11-26T03:12:38.658Z,2.28
2018-11-26T03:13:48.359Z,2.26
2018-11-26T03:14:58.301Z,2.32
2018-11-26T03:16:07.503Z,2.36
2018-11-26T03:17:17.467Z,2.36
2018-11-26T03:18:27.155Z,2.33
2018-11-26T03:19:37.105Z,2.28
2018-11-26T03:20:46.818Z,2.34
2018-11-26T03:21:56.773Z,2.34
2018-11-26T03:23:06.496Z,2.3
2018-11-26T03:24:16.440Z,2.36
2018-11-26T03:25:26.144Z,2.36
2018-11-26T03:26:35.841Z,2.32
2018-11-26T03:27:45.283Z,2.3
2018-11-26T03:28:55.219Z,2.32
2018-11-26T03:30:05.038Z,2.33
2018-11-26T03:31:14.788Z,2.3
2018-11-26T03:32:24.496Z,2.32
2018-11-26T03:33:33.940Z,2.39
2018-11-26T03:34:43.885Z,2.43
2018-11-26T03:35:53.583Z,2.3
2018-11-26T03:37:03.534Z,2.36
2018-11-26T03:38:12.731Z,2.26
2018-11-26T03:39:22.182Z,2.39
2018-11-26T03:40:32.133Z,2.34
2018-11-26T03:41:41.831Z,2.36
2018-11-26T03:42:51.291Z,2.4
2018-11-26T03:44:01.234Z,2.39
2018-11-26T03:45:11.185Z,2.39
2018-11-26T03:46:20.626Z,2.33
2018-11-26T03:47:30.328Z,2.39
2018-11-26T03:48:40.294Z,2.4
2018-11-26T03:49:50.269Z,2.3
2018-11-26T03:50:59.981Z,2.34
2018-11-26T03:52:09.686Z,2.39
2018-11-26T03:53:19.401Z,2.3
2018-11-26T03:54:29.099Z,2.3
2018-11-26T03:55:38.542Z,2.32
2018-11-26T03:56:48.501Z,2.28
2018-11-26T03:57:58.479Z,2.3
2018-11-26T03:59:08.423Z,2.33
2018-11-26T04:00:18.188Z,2.28
2018-11-26T04:01:27.889Z,2.47
2018-11-26T04:02:37.332Z,2.36
2018-11-26T04:03:47.050Z,2.41
2018-11-26T04:04:56.752Z,2.44
2018-11-26T04:06:06.464Z,2.36
2018-11-26T04:07:15.922Z,2.36
2018-11-26T04:08:25.635Z,2.4
2018-11-26T04:09:35.328Z,2.39
2018-11-26T04:10:45.284Z,2.43
2018-11-26T04:11:54.984Z,2.43
2018-11-26T04:13:04.440Z,2.43
2018-11-26T04:14:14.144Z,2.39
2018-11-26T04:15:24.105Z,2.34
2018-11-26T04:16:33.802Z,2.3
2018-11-26T04:17:43.783Z,2.34
2018-11-26T04:18:53.748Z,2.43
2018-11-26T04:20:03.207Z,2.36
2018-11-26T04:21:13.156Z,2.28
2018-11-26T04:22:23.114Z,2.39
2018-11-26T04:23:32.803Z,2.26
2018-11-26T04:24:42.508Z,2.3
2018-11-26T04:25:52.466Z,2.32
2018-11-26T04:27:03.371Z,2.34
2018-11-26T04:28:12.838Z,2.37
2018-11-26T04:29:22.544Z,2.43
2018-11-26T04:30:32.244Z,2.34
2018-11-26T04:31:42.185Z,2.4
2018-11-26T04:32:51.911Z,2.28
2018-11-26T04:34:01.381Z,2.41
2018-11-26T04:35:11.353Z,2.4
2018-11-26T04:36:21.057Z,2.4
2018-11-26T04:37:30.658Z,2.37
2018-11-26T04:38:40.621Z,2.43
2018-11-26T04:39:50.595Z,2.44
2018-11-26T04:41:00.335Z,2.41
2018-11-26T04:42:09.535Z,2.41
2018-11-26T04:43:19.243Z,2.41
2018-11-26T04:44:29.177Z,2.39
2018-11-26T04:45:39.129Z,2.47
2018-11-26T04:46:48.827Z,2.46
2018-11-26T04:47:58.779Z,2.47
2018-11-26T04:49:08.478Z,2.58
2018-11-26T04:50:18.437Z,2.47
2018-11-26T04:51:28.392Z,2.52
2018-11-26T04:52:38.091Z,2.59
2018-11-26T04:53:48.043Z,2.57
2018-11-26T04:54:57.992Z,2.47
2018-11-26T04:56:07.453Z,2.52
2018-11-26T04:57:17.417Z,2.44
2018-11-26T04:58:27.368Z,2.55
2018-11-26T04:59:36.554Z,2.52
2018-11-26T05:00:46.035Z,2.52
2018-11-26T05:01:55.736Z,2.52
2018-11-26T05:03:05.459Z,2.54
2018-11-26T05:04:14.929Z,2.52
2018-11-26T05:05:24.386Z,2.58
2018-11-26T05:06:34.090Z,2.59
2018-11-26T05:07:43.553Z,2.55
2018-11-26T05:08:52.778Z,2.59
2018-11-26T05:10:02.533Z,2.65
2018-11-26T05:11:12.243Z,2.59
2018-11-26T05:12:21.963Z,2.69
2018-11-26T05:13:31.907Z,2.73
2018-11-26T05:14:41.838Z,2.64
2018-11-26T05:15:51.279Z,2.7
2018-11-26T05:17:00.718Z,2.73
2018-11-26T05:18:10.772Z,2.7
2018-11-26T05:19:20.479Z,2.82
2018-11-26T05:20:30.428Z,2.79
2018-11-26T05:21:40.149Z,2.77
2018-11-26T05:22:49.608Z,2.76
2018-11-26T05:23:59.561Z,2.72
2018-11-26T05:25:09.262Z,2.85
2018-11-26T05:26:18.699Z,2.85
2018-11-26T05:27:28.423Z,2.77
2018-11-26T05:28:38.147Z,2.8
2018-11-26T05:29:47.860Z,2.85
2018-11-26T05:30:57.806Z,2.85
2018-11-26T05:32:07.761Z,2.83
2018-11-26T05:33:17.472Z,2.8
2018-11-26T05:34:27.426Z,2.82
2018-11-26T05:35:36.879Z,2.9
2018-11-26T05:36:46.080Z,2.97
2018-11-26T05:37:56.037Z,2.87
2018-11-26T05:39:05.488Z,2.82
2018-11-26T05:40:15.213Z,2.85
2018-11-26T05:41:24.913Z,2.85
2018-11-26T05:42:34.357Z,2.83
2018-11-26T05:43:44.065Z,2.93
2018-11-26T05:44:53.540Z,2.97
2018-11-26T05:46:03.275Z,2.82
2018-11-26T05:47:12.957Z,2.9
2018-11-26T05:48:22.909Z,2.85
2018-11-26T05:49:32.356Z,2.91
2018-11-26T05:50:41.813Z,2.8
2018-11-26T05:51:51.783Z,2.79
2018-11-26T05:53:01.240Z,2.85
2018-11-26T05:54:11.198Z,2.88
2018-11-26T05:55:21.342Z,2.85
2018-11-26T05:56:31.093Z,2.87
2018-11-26T05:57:40.548Z,2.9
2018-11-26T05:58:50.261Z,2.91
2018-11-26T06:00:00.201Z,2.85
2018-11-26T06:01:09.662Z,2.98
2018-11-26T06:02:19.370Z,2.91
2018-11-26T06:03:29.080Z,2.93
2018-11-26T06:04:39.045Z,2.87
2018-11-26T06:05:48.999Z,2.91
2018-11-26T06:06:58.709Z,2.91
2018-11-26T06:08:08.656Z,2.9
2018-11-26T06:09:18.103Z,2.94
2018-11-26T06:10:28.055Z,2.9
2018-11-26T06:11:37.792Z,2.9
2018-11-26T06:12:47.229Z,2.94
2018-11-26T06:13:56.680Z,2.88
2018-11-26T06:15:06.133Z,2.94
2018-11-26T06:16:15.842Z,2.94
2018-11-26T06:17:25.568Z,2.94
2018-11-26T06:18:35.292Z,2.93
2018-11-26T06:19:44.758Z,2.94
2018-11-26T06:20:54.483Z,2.93
2018-11-26T06:22:04.431Z,3
2018-11-26T06:23:13.874Z,2.94
2018-11-26T06:24:23.352Z,2.95
2018-11-26T06:25:33.307Z,2.9
2018-11-26T06:26:42.761Z,2.88
2018-11-26T06:27:52.729Z,2.97
2018-11-26T06:29:02.428Z,2.98
2018-11-26T06:30:12.403Z,2.95
2018-11-26T06:31:22.115Z,2.97
2018-11-26T06:32:31.575Z,2.98
2018-11-26T06:33:41.271Z,3
2018-11-26T06:34:50.718Z,2.95
2018-11-26T06:36:00.681Z,2.93
2018-11-26T06:37:10.626Z,2.91
2018-11-26T06:38:20.584Z,2.97
2018-11-26T06:39:30.556Z,3.03
2018-11-26T06:40:40.022Z,3.03
2018-11-26T06:41:49.739Z,3
2018-11-26T06:42:59.181Z,3.05
2018-11-26T06:44:08.386Z,3.05
2018-11-26T06:45:18.104Z,3.06
2018-11-26T06:46:27.814Z,3.05
2018-11-26T06:47:37.263Z,3.12
2018-11-26T06:48:47.519Z,3.03
2018-11-26T06:49:57.214Z,3.09
2018-11-26T06:51:06.920Z,3.08
2018-11-26T06:52:16.622Z,3.13
2018-11-26T06:53:26.606Z,3.08
2018-11-26T06:54:36.591Z,3.18
2018-11-26T06:55:46.554Z,3.21
2018-11-26T06:56:56.010Z,3.22
2018-11-26T06:58:05.743Z,3.15
2018-11-26T06:59:15.454Z,3.21
2018-11-26T07:00:25.409Z,3.16
2018-11-26T07:01:35.117Z,3.22
2018-11-26T07:02:44.825Z,3.19
2018-11-26T07:03:54.534Z,3.13
2018-11-26T07:05:04.245Z,3.27
2018-11-26T07:06:13.981Z,3.27
2018-11-26T07:07:23.700Z,3.29
2018-11-26T07:08:33.666Z,3.26
2018-11-26T07:09:43.121Z,3.36
2018-11-26T07:10:52.569Z,3.31
2018-11-26T07:12:02.509Z,3.29
2018-11-26T07:13:12.224Z,3.33
2018-11-26T07:14:21.945Z,3.29
2018-11-26T07:15:31.412Z,3.27
2018-11-26T07:16:42.483Z,3.31
2018-11-26T07:17:52.445Z,3.33
2018-11-26T07:19:01.401Z,3.31
2018-11-26T07:20:11.138Z,3.33
2018-11-26T07:21:21.116Z,3.34
2018-11-26T07:22:30.821Z,3.36
2018-11-26T07:23:40.270Z,3.37
2018-11-26T07:24:49.731Z,3.31
2018-11-26T07:25:59.437Z,3.31
2018-11-26T07:27:09.079Z,3.33
2018-11-26T07:28:19.043Z,3.26
2018-11-26T07:29:28.959Z,3.29
2018-11-26T07:30:38.673Z,3.34
2018-11-26T07:31:48.145Z,3.31
2018-11-26T07:32:57.877Z,3.31
2018-11-26T07:34:07.840Z,3.27
2018-11-26T07:35:17.294Z,3.3
2018-11-26T07:36:26.986Z,3.36
2018-11-26T07:37:36.940Z,3.34
2018-11-26T07:38:46.721Z,3.37
2018-11-26T07:39:56.179Z,3.48
2018-11-26T07:41:05.892Z,3.43
2018-11-26T07:42:15.329Z,3.45
2018-11-26T07:43:25.020Z,3.46
2018-11-26T07:44:35.009Z,3.49
2018-11-26T07:45:44.977Z,3.45
2018-11-26T07:46:54.924Z,3.49
2018-11-26T07:48:04.429Z,3.56
2018-11-26T07:49:13.718Z,3.56
2018-11-26T07:50:23.593Z,3.49
2018-11-26T07:51:32.906Z,3.53
2018-11-26T07:52:42.206Z,3.61
2018-11-26T07:53:51.460Z,3.53
2018-11-26T07:55:01.119Z,3.59
2018-11-26T07:56:11.208Z,3.66
2018-11-26T07:57:21.193Z,3.66
2018-11-26T07:58:31.053Z,3.66
2018-11-26T07:59:40.810Z,3.67
2018-11-26T08:00:50.937Z,3.68
2018-11-26T08:02:00.699Z,3.73
2018-11-26T08:03:10.379Z,3.68
2018-11-26T08:04:20.684Z,3.71
2018-11-26T08:05:30.718Z,3.68
2018-11-26T08:06:40.432Z,3.7
2018-11-26T08:07:50.149Z,3.71
2018-11-26T08:08:59.957Z,3.7
2018-11-26T08:10:09.592Z,3.81
2018-11-26T08:11:19.548Z,3.85
2018-11-26T08:12:29.897Z,3.82
2018-11-26T08:13:39.648Z,3.84
2018-11-26T08:14:49.472Z,3.71
2018-11-26T08:15:59.662Z,3.85
2018-11-26T08:17:09.619Z,3.84
2018-11-26T08:18:19.493Z,3.81
2018-11-26T08:19:29.043Z,3.88
2018-11-26T08:20:38.588Z,3.81
2018-11-26T08:21:48.782Z,3.84
2018-11-26T08:22:58.772Z,3.81
2018-11-26T08:24:08.492Z,3.86
2018-11-26T08:25:18.135Z,3.84
2018-11-26T08:26:27.458Z,3.82
2018-11-26T08:27:37.215Z,3.88
2018-11-26T08:28:47.249Z,3.84
2018-11-26T08:29:57.129Z,3.82
2018-11-26T08:31:06.699Z,3.86
2018-11-26T08:32:16.521Z,3.89
2018-11-26T08:33:26.561Z,3.85
2018-11-26T08:34:35.889Z,3.91
2018-11-26T08:35:45.955Z,3.95
2018-11-26T08:36:56.100Z,3.88
2018-11-26T08:38:06.241Z,4
2018-11-26T08:39:16.049Z,4
2018-11-26T08:40:26.032Z,4.06
2018-11-26T08:41:35.659Z,4.02
2018-11-26T08:42:45.692Z,4.02
2018-11-26T08:43:56.075Z,4.07
2018-11-26T08:45:06.343Z,4.04
2018-11-26T08:46:16.197Z,4.06
2018-11-26T08:47:26.014Z,4.18
2018-11-26T08:48:35.505Z,4.14
2018-11-26T08:49:45.483Z,4.22
2018-11-26T08:50:55.484Z,4.18
2018-11-26T08:52:05.056Z,4.22
2018-11-26T08:53:14.833Z,4.28
2018-11-26T08:54:24.844Z,4.28
2018-11-26T08:55:34.856Z,4.38
2018-11-26T08:56:45.558Z,4.27
2018-11-26T08:57:55.418Z,4.24
2018-11-26T08:59:05.080Z,4.21
2018-11-26T09:00:14.687Z,4.22
2018-11-26T09:01:24.716Z,4.24
2018-11-26T09:02:34.356Z,4.21
2018-11-26T09:03:43.983Z,4.3
2018-11-26T09:04:54.245Z,4.27
2018-11-26T09:06:04.674Z,4.31
2018-11-26T09:07:14.698Z,4.32
2018-11-26T09:08:25.567Z,4.36
2018-11-26T09:09:38.002Z,4.38
2018-11-26T09:10:48.397Z,4.4
2018-11-26T09:11:58.956Z,4.4
2018-11-26T09:13:09.840Z,4.4
2018-11-26T09:14:19.755Z,4.4
2018-11-26T09:15:30.477Z,4.42
2018-11-26T09:16:40.953Z,4.34
2018-11-26T09:17:51.964Z,4.52
2018-11-26T09:19:01.969Z,4.48
2018-11-26T09:20:12.001Z,4.42
2018-11-26T09:21:21.770Z,4.53
2018-11-26T09:22:31.236Z,4.48
2018-11-26T09:23:40.959Z,4.42
2018-11-26T09:24:50.735Z,4.45
2018-11-26T09:26:00.798Z,4.39
2018-11-26T09:27:14.621Z,4.46
2018-11-26T09:28:24.427Z,4.4
2018-11-26T09:29:34.530Z,4.31
2018-11-26T09:30:44.362Z,4.39
2018-11-26T09:31:53.970Z,4.36
2018-11-26T09:33:03.947Z,4.36
2018-11-26T09:34:13.730Z,4.4
2018-11-26T09:35:23.804Z,4.31
2018-11-26T09:36:33.098Z,4.39
2018-11-26T09:37:43.409Z,4.36
2018-11-26T09:38:52.953Z,4.42
2018-11-26T09:40:02.940Z,4.38
2018-11-26T09:41:13.139Z,4.57
2018-11-26T09:42:22.712Z,4.45
2018-11-26T09:43:32.269Z,4.49
2018-11-26T09:44:42.400Z,4.46
2018-11-26T09:45:52.300Z,4.52
2018-11-26T09:47:02.244Z,4.52
2018-11-26T09:48:11.763Z,4.52
2018-11-26T09:49:21.846Z,4.49
2018-11-26T09:50:31.996Z,4.5
2018-11-26T09:51:46.676Z,4.56
2018-11-26T09:52:56.768Z,4.52
2018-11-26T09:54:06.576Z,4.49
2018-11-26T09:55:16.195Z,4.53
2018-11-26T09:56:26.236Z,4.57
2018-11-26T09:57:36.398Z,4.49
2018-11-26T09:58:46.541Z,4.5
2018-11-26T09:59:56.721Z,4.6
2018-11-26T10:01:06.720Z,4.58
2018-11-26T10:02:16.433Z,4.58
2018-11-26T10:03:26.451Z,4.58
2018-11-26T10:04:36.860Z,4.6
2018-11-26T10:05:46.851Z,4.61
2018-11-26T10:06:56.739Z,4.63
2018-11-26T10:08:06.531Z,4.75
2018-11-26T10:09:16.487Z,4.78
2018-11-26T10:10:26.291Z,4.79
2018-11-26T10:11:36.078Z,4.76
2018-11-26T10:12:45.847Z,4.86
2018-11-26T10:13:55.898Z,4.97
2018-11-26T10:15:06.143Z,4.95
2018-11-26T10:16:15.531Z,5.02
2018-11-26T10:17:25.093Z,4.87
2018-11-26T10:18:34.892Z,4.84
2018-11-26T10:19:44.175Z,4.82
2018-11-26T10:20:54.033Z,4.86
2018-11-26T10:22:03.854Z,4.71
2018-11-26T10:23:13.745Z,4.83
2018-11-26T10:24:23.738Z,4.75
2018-11-26T10:25:33.545Z,4.89
2018-11-26T10:26:43.424Z,4.82
2018-11-26T10:27:53.267Z,4.86
2018-11-26T10:29:03.483Z,4.89
2018-11-26T10:30:13.352Z,4.83
2018-11-26T10:31:23.012Z,4.95
2018-11-26T10:32:32.389Z,4.94
2018-11-26T10:33:42.056Z,4.87
2018-11-26T10:34:51.994Z,4.84
2018-11-26T10:36:01.799Z,4.86
2018-11-26T10:37:11.457Z,4.89
2018-11-26T10:38:21.317Z,4.84
2018-11-26T10:39:31.029Z,4.89
2018-11-26T10:40:40.764Z,5
2018-11-26T10:41:51.021Z,4.95
2018-11-26T10:43:01.002Z,4.82
2018-11-26T10:44:16.990Z,4.87
2018-11-26T10:45:26.750Z,4.83
2018-11-26T10:46:36.236Z,4.79
2018-11-26T10:47:46.367Z,4.83
2018-11-26T10:48:56.467Z,4.9
2018-11-26T10:50:06.575Z,4.82
2018-11-26T10:51:16.772Z,4.78
2018-11-26T10:52:26.909Z,4.87
2018-11-26T10:53:36.441Z,4.79
2018-11-26T10:54:46.157Z,4.9
2018-11-26T10:55:55.947Z,4.83
2018-11-26T10:57:05.655Z,4.9
2018-11-26T10:58:15.379Z,4.89
2018-11-26T10:59:25.564Z,4.86
2018-11-26T11:00:35.136Z,4.87
2018-11-26T11:01:44.906Z,4.97
2018-11-26T11:02:54.759Z,4.9
2018-11-26T11:04:04.571Z,4.87
2018-11-26T11:05:13.875Z,5
2018-11-26T11:06:24.001Z,4.94
2018-11-26T11:07:34.004Z,5.02
2018-11-26T11:08:43.687Z,4.87
2018-11-26T11:09:53.798Z,4.97
2018-11-26T11:11:03.729Z,4.79
2018-11-26T11:12:13.836Z,4.94
2018-11-26T11:13:23.519Z,4.92
2018-11-26T11:14:33.450Z,4.98
2018-11-26T11:15:43.025Z,4.98
2018-11-26T11:16:53.157Z,5
2018-11-26T11:18:03.394Z,5.07
2018-11-26T11:19:13.198Z,5.1
2018-11-26T11:20:23.481Z,5.15
2018-11-26T11:21:33.489Z,5.12
2018-11-26T11:22:44.352Z,5.16
2018-11-26T11:23:55.621Z,5.18
2018-11-26T11:25:05.221Z,5.25
2018-11-26T11:26:14.872Z,5.28
2018-11-26T11:27:25.426Z,5.15
2018-11-26T11:28:35.393Z,5.26
2018-11-26T11:29:45.346Z,5.31
2018-11-26T11:30:55.318Z,5.28
2018-11-26T11:32:05.298Z,5.26
2018-11-26T11:34:24.349Z,5.31
2018-11-26T11:35:33.842Z,5.2
2018-11-26T11:36:43.828Z,5.2
2018-11-26T11:37:53.762Z,5.25
2018-11-26T11:39:03.721Z,5.18
2018-11-26T11:40:12.699Z,5.28
2018-11-26T11:41:22.662Z,5.26
2018-11-26T11:42:32.610Z,5.26
2018-11-26T11:43:42.055Z,5.31
2018-11-26T11:44:51.750Z,5.25
2018-11-26T11:46:01.691Z,5.37
2018-11-26T11:47:11.729Z,5.37
2018-11-26T11:48:21.696Z,5.36
2018-11-26T11:49:31.934Z,5.37
2018-11-26T11:50:41.980Z,5.34
2018-11-26T11:51:52.060Z,5.4
2018-11-26T11:53:01.767Z,5.4
2018-11-26T11:54:11.728Z,5.29
2018-11-26T11:55:21.688Z,5.28
2018-11-26T11:56:31.654Z,5.25
2018-11-26T11:57:41.362Z,5.28
2018-11-26T11:58:51.302Z,5.26
2018-11-26T12:00:01.000Z,5.33
2018-11-26T12:01:16.453Z,5.31
2018-11-26T12:02:26.163Z,5.22
2018-11-26T12:03:36.134Z,5.2
2018-11-26T12:04:46.103Z,5.15
2018-11-26T12:05:56.104Z,5.2
2018-11-26T12:07:06.071Z,5.08
2018-11-26T12:08:16.006Z,5.13
2018-11-26T12:09:25.958Z,5.19
2018-11-26T12:10:35.950Z,5.1
2018-11-26T12:11:45.901Z,5.1
2018-11-26T12:12:55.889Z,4.94
2018-11-26T12:14:05.876Z,5.02
2018-11-26T12:15:15.585Z,5
2018-11-26T12:16:25.641Z,4.94
2018-11-26T12:17:35.596Z,4.98
2018-11-26T12:18:45.299Z,4.95
2018-11-26T12:19:54.993Z,4.92
2018-11-26T12:21:04.738Z,4.98
2018-11-26T12:22:14.689Z,4.97
2018-11-26T12:23:24.647Z,4.98
2018-11-26T12:24:34.362Z,4.97
2018-11-26T12:25:44.056Z,4.86
2018-11-26T12:26:53.999Z,4.78
2018-11-26T12:28:03.952Z,4.7
2018-11-26T12:29:13.894Z,4.58
2018-11-26T12:30:23.629Z,4.6
2018-11-26T12:31:33.903Z,4.6
2018-11-26T12:32:43.893Z,4.52
2018-11-26T12:33:53.076Z,4.56
2018-11-26T12:35:02.518Z,4.52
2018-11-26T12:36:12.471Z,4.52
2018-11-26T12:37:22.163Z,4.49
2018-11-26T12:38:31.857Z,4.42
2018-11-26T12:39:41.812Z,4.4
2018-11-26T12:40:51.494Z,4.48
2018-11-26T12:42:04.166Z,4.42
2018-11-26T12:43:14.225Z,4.45
2018-11-26T12:44:23.919Z,4.52
2018-11-26T12:45:33.911Z,4.39
2018-11-26T12:46:43.614Z,4.5
2018-11-26T12:47:53.562Z,4.45
2018-11-26T12:49:03.525Z,4.36
2018-11-26T12:50:13.473Z,4.4
2018-11-26T12:51:22.935Z,4.32
2018-11-26T12:52:32.624Z,4.28
2018-11-26T12:53:42.601Z,4.27
2018-11-26T12:54:52.567Z,4.27
2018-11-26T12:56:02.508Z,4.2
2018-11-26T12:57:12.203Z,4.25
2018-11-26T12:58:22.156Z,4.25
2018-11-26T12:59:32.100Z,4.27
2018-11-26T13:00:41.815Z,4.24
2018-11-26T13:01:51.792Z,4.21
2018-11-26T13:03:01.725Z,4.18
2018-11-26T13:04:11.678Z,4.18
2018-11-26T13:05:21.616Z,4.24
2018-11-26T13:06:31.562Z,4.16
2018-11-26T13:07:41.048Z,4.24
2018-11-26T13:08:51.011Z,4.12
2018-11-26T13:10:00.968Z,4.1
2018-11-26T13:11:10.667Z,4.06
2018-11-26T13:12:20.608Z,4
2018-11-26T13:13:29.782Z,4.2
2018-11-26T13:14:39.736Z,4.22
2018-11-26T13:15:49.187Z,4.21
2018-11-26T13:16:58.886Z,4.14
2018-11-26T13:18:08.859Z,4.14
2018-11-26T13:19:18.901Z,4.18
2018-11-26T13:20:28.915Z,4.2
2018-11-26T13:21:38.626Z,4.18
2018-11-26T13:22:49.279Z,4.16
2018-11-26T13:23:58.970Z,4.22
2018-11-26T13:25:08.926Z,4.21
2018-11-26T13:26:18.641Z,4.24
2018-11-26T13:27:28.392Z,4.27
2018-11-26T13:28:38.520Z,4.25
2018-11-26T13:29:48.469Z,4.22
2018-11-26T13:30:58.156Z,4.25
2018-11-26T13:32:07.841Z,4.16
2018-11-26T13:33:17.293Z,4.25
2018-11-26T13:34:27.016Z,4.24
2018-11-26T13:35:36.202Z,4.2
2018-11-26T13:36:45.912Z,4.16
2018-11-26T13:37:55.855Z,4.2
2018-11-26T13:39:05.821Z,4.13
2018-11-26T13:40:15.779Z,4.16
2018-11-26T13:41:25.505Z,4.16
2018-11-26T13:42:35.193Z,4.14
2018-11-26T13:43:44.890Z,4.21
2018-11-26T13:44:54.580Z,4.2
2018-11-26T13:46:04.528Z,4.22
2018-11-26T13:47:14.220Z,4.2
2018-11-26T13:48:24.168Z,4.1
2018-11-26T13:49:34.133Z,4.16
2018-11-26T13:50:43.830Z,4.14
2018-11-26T13:51:53.518Z,4.21
2018-11-26T13:53:03.431Z,4.2
2018-11-26T13:54:13.364Z,4.18
2018-11-26T13:55:23.056Z,4.14
2018-11-26T13:56:32.499Z,4.16
2018-11-26T13:57:42.199Z,4.09
2018-11-26T13:58:52.138Z,4.07
2018-11-26T14:00:01.828Z,4.13
2018-11-26T14:01:11.279Z,4.2
2018-11-26T14:02:20.993Z,4.16
2018-11-26T14:03:31.026Z,4.14
2018-11-26T14:04:40.977Z,4.21
2018-11-26T14:05:50.677Z,4.3
2018-11-26T14:07:00.374Z,4.24
2018-11-26T14:08:10.331Z,4.32
2018-11-26T14:09:20.320Z,4.34
2018-11-26T14:10:30.282Z,4.22
2018-11-26T14:11:40.362Z,4.24
2018-11-26T14:12:50.366Z,4.18
2018-11-26T14:14:00.054Z,4.13
2018-11-26T14:15:10.078Z,4.12
2018-11-26T14:16:20.026Z,4.16
2018-11-26T14:17:29.996Z,4.12
2018-11-26T14:18:39.726Z,4.13
2018-11-26T14:19:49.674Z,4.16
2018-11-26T14:20:59.646Z,4.18
2018-11-26T14:22:10.578Z,4.12
2018-11-26T14:23:20.496Z,4.07
2018-11-26T14:24:30.465Z,4.16
2018-11-26T14:25:40.172Z,4.04
2018-11-26T14:26:50.135Z,4.09
2018-11-26T14:28:00.092Z,4.03
2018-11-26T14:29:09.802Z,4.12
2018-11-26T14:30:19.760Z,4.03
2018-11-26T14:31:29.498Z,4.03
2018-11-26T14:32:39.200Z,4
2018-11-26T14:33:49.177Z,4.09
2018-11-26T14:34:59.130Z,4.21
2018-11-26T14:36:08.876Z,4.16
2018-11-26T14:37:18.830Z,4.16
2018-11-26T14:38:28.286Z,4.2
2018-11-26T14:39:37.980Z,4.13
2018-11-26T14:40:47.924Z,4.07
2018-11-26T14:41:57.869Z,4.06
2018-11-26T14:43:07.817Z,4
2018-11-26T14:44:17.507Z,3.96
2018-11-26T14:45:27.266Z,4.09
2018-11-26T14:46:37.218Z,3.94
2018-11-26T14:47:47.567Z,3.92
2018-11-26T14:48:58.048Z,3.95
2018-11-26T14:50:08.008Z,3.91
2018-11-26T14:51:17.456Z,3.94
2018-11-26T14:52:27.146Z,3.94
2018-11-26T14:53:37.102Z,3.99
2018-11-26T14:54:47.052Z,3.91
2018-11-26T14:55:56.991Z,3.86
2018-11-26T14:57:06.940Z,3.85
2018-11-26T14:58:16.632Z,3.89
2018-11-26T14:59:26.389Z,3.94
2018-11-26T15:00:36.332Z,3.88
2018-11-26T15:01:46.299Z,3.86
2018-11-26T15:02:56.252Z,3.92
2018-11-26T15:04:06.216Z,3.84
2018-11-26T15:05:16.171Z,3.82
2018-11-26T15:06:25.863Z,3.95
2018-11-26T15:07:35.571Z,3.96
2018-11-26T15:08:45.129Z,3.95
2018-11-26T15:09:54.804Z,3.96
2018-11-26T15:11:04.543Z,3.94
2018-11-26T15:12:14.241Z,3.99
2018-11-26T15:13:23.704Z,3.92
2018-11-26T15:14:33.387Z,3.96
2018-11-26T15:15:43.395Z,3.95
2018-11-26T15:16:53.351Z,3.95
2018-11-26T15:18:03.308Z,3.95
2018-11-26T15:19:13.019Z,3.94
2018-11-26T15:20:22.967Z,3.89
2018-11-26T15:21:32.661Z,3.88
2018-11-26T15:22:42.374Z,3.84
2018-11-26T15:23:52.077Z,3.82
2018-11-26T15:25:01.787Z,3.86
2018-11-26T15:26:11.736Z,3.82
2018-11-26T15:27:21.681Z,3.86
2018-11-26T15:28:31.634Z,3.96
2018-11-26T15:29:41.083Z,3.96
2018-11-26T15:30:50.529Z,3.94
2018-11-26T15:32:00.230Z,3.92
2018-11-26T15:33:10.202Z,3.91
2018-11-26T15:34:20.137Z,3.94
2018-11-26T15:35:30.121Z,3.91
2018-11-26T15:36:40.095Z,3.82